sensor_id;sensor_type;location;lat;lon;timestamp;temperature;humidity
15296;DHT22;7749;49.964;7.890;2023-03-14T00:01:21;10.70;99.90
15296;DHT22;7749;49.964;7.890;2023-03-14T00:03:49;10.70;99.90
15296;DHT22;7749;49.964;7.890;2023-03-14T00:06:17;10.70;99.90
15296;DHT22;7749;49.964;7.890;2023-03-14T00:08:46;10.70;99.90
15296;DHT22;7749;49.964;7.890;2023-03-14T00:11:17;10.80;99.90
15296;DHT22;7749;49.964;7.890;2023-03-14T00:13:51;10.80;99.90
15296;DHT22;7749;49.964;7.890;2023-03-14T00:16:19;10.90;99.90
15296;DHT22;7749;49.964;7.890;2023-03-14T00:18:47;10.90;99.90
15296;DHT22;7749;49.964;7.890;2023-03-14T00:21:15;10.90;99.90
15296;DHT22;7749;49.964;7.890;2023-03-14T00:23:43;10.90;99.90
15296;DHT22;7749;49.964;7.890;2023-03-14T00:26:13;11.00;99.90
15296;DHT22;7749;49.964;7.890;2023-03-14T00:28:45;10.90;99.90
15296;DHT22;7749;49.964;7.890;2023-03-14T00:31:15;10.90;99.90
15296;DHT22;7749;49.964;7.890;2023-03-14T00:33:45;10.90;99.90
15296;DHT22;7749;49.964;7.890;2023-03-14T00:36:15;10.90;99.90
15296;DHT22;7749;49.964;7.890;2023-03-14T00:38:47;10.90;99.90
15296;DHT22;7749;49.964;7.890;2023-03-14T00:41:20;10.90;99.90
15296;DHT22;7749;49.964;7.890;2023-03-14T00:43:51;10.80;99.90
15296;DHT22;7749;49.964;7.890;2023-03-14T00:46:19;10.80;99.90
15296;DHT22;7749;49.964;7.890;2023-03-14T00:48:47;10.70;99.90
15296;DHT22;7749;49.964;7.890;2023-03-14T00:51:15;10.60;99.90
15296;DHT22;7749;49.964;7.890;2023-03-14T00:53:43;10.70;99.90
15296;DHT22;7749;49.964;7.890;2023-03-14T00:56:12;10.70;99.90
15296;DHT22;7749;49.964;7.890;2023-03-14T00:58:40;10.80;99.90
15296;DHT22;7749;49.964;7.890;2023-03-14T01:01:17;10.60;99.90
15296;DHT22;7749;49.964;7.890;2023-03-14T01:03:46;10.70;99.90
15296;DHT22;7749;49.964;7.890;2023-03-14T01:06:16;10.70;99.90
15296;DHT22;7749;49.964;7.890;2023-03-14T01:08:45;10.80;99.90
15296;DHT22;7749;49.964;7.890;2023-03-14T01:11:22;10.70;99.90
15296;DHT22;7749;49.964;7.890;2023-03-14T01:13:50;10.70;99.90
15296;DHT22;7749;49.964;7.890;2023-03-14T01:16:19;10.60;99.90
15296;DHT22;7749;49.964;7.890;2023-03-14T01:18:47;10.50;99.90
15296;DHT22;7749;49.964;7.890;2023-03-14T01:21:25;10.50;99.90
15296;DHT22;7749;49.964;7.890;2023-03-14T01:23:55;10.50;99.90
15296;DHT22;7749;49.964;7.890;2023-03-14T01:26:24;10.60;99.90
15296;DHT22;7749;49.964;7.890;2023-03-14T01:28:54;10.40;99.90
15296;DHT22;7749;49.964;7.890;2023-03-14T01:31:23;10.40;99.90
15296;DHT22;7749;49.964;7.890;2023-03-14T01:33:51;10.40;99.90
15296;DHT22;7749;49.964;7.890;2023-03-14T01:36:19;10.40;99.90
15296;DHT22;7749;49.964;7.890;2023-03-14T01:38:47;10.40;99.90
15296;DHT22;7749;49.964;7.890;2023-03-14T01:41:18;10.50;99.90
15296;DHT22;7749;49.964;7.890;2023-03-14T01:43:46;10.40;99.90
15296;DHT22;7749;49.964;7.890;2023-03-14T01:51:29;10.40;99.90
15296;DHT22;7749;49.964;7.890;2023-03-14T01:54:46;10.40;99.90
15296;DHT22;7749;49.964;7.890;2023-03-14T01:56:58;10.40;99.90
15296;DHT22;7749;49.964;7.890;2023-03-14T01:59:30;10.40;99.90
15296;DHT22;7749;49.964;7.890;2023-03-14T02:01:59;10.40;99.90
15296;DHT22;7749;49.964;7.890;2023-03-14T02:04:32;10.30;99.90
15296;DHT22;7749;49.964;7.890;2023-03-14T02:09:49;10.20;99.90
15296;DHT22;7749;49.964;7.890;2023-03-14T02:12:18;10.10;99.90
15296;DHT22;7749;49.964;7.890;2023-03-14T02:14:47;10.30;99.90
15296;DHT22;7749;49.964;7.890;2023-03-14T02:17:17;10.10;99.90
15296;DHT22;7749;49.964;7.890;2023-03-14T02:22:40;10.10;99.90
15296;DHT22;7749;49.964;7.890;2023-03-14T02:27:58;10.00;99.90
15296;DHT22;7749;49.964;7.890;2023-03-14T02:30:28;10.10;99.90
15296;DHT22;7749;49.964;7.890;2023-03-14T02:33:04;10.00;99.90
15296;DHT22;7749;49.964;7.890;2023-03-14T02:35:46;10.00;99.90
15296;DHT22;7749;49.964;7.890;2023-03-14T02:40:48;10.10;99.90
15296;DHT22;7749;49.964;7.890;2023-03-14T02:43:16;10.00;99.90
15296;DHT22;7749;49.964;7.890;2023-03-14T02:45:48;10.00;99.90
15296;DHT22;7749;49.964;7.890;2023-03-14T02:48:20;10.00;99.90
15296;DHT22;7749;49.964;7.890;2023-03-14T02:50:51;10.00;99.90
15296;DHT22;7749;49.964;7.890;2023-03-14T02:53:25;10.00;99.90
15296;DHT22;7749;49.964;7.890;2023-03-14T02:55:56;10.10;99.90
15296;DHT22;7749;49.964;7.890;2023-03-14T02:58:24;10.10;99.90
15296;DHT22;7749;49.964;7.890;2023-03-14T03:00:52;10.20;99.90
15296;DHT22;7749;49.964;7.890;2023-03-14T03:03:20;10.10;99.90
15296;DHT22;7749;49.964;7.890;2023-03-14T03:05:52;10.10;99.90
15296;DHT22;7749;49.964;7.890;2023-03-14T03:08:21;10.00;99.90
15296;DHT22;7749;49.964;7.890;2023-03-14T03:10:50;10.00;99.90
15296;DHT22;7749;49.964;7.890;2023-03-14T03:13:18;10.00;99.90
15296;DHT22;7749;49.964;7.890;2023-03-14T03:15:46;9.90;99.90
15296;DHT22;7749;49.964;7.890;2023-03-14T03:18:14;9.90;99.90
15296;DHT22;7749;49.964;7.890;2023-03-14T03:20:42;9.80;99.90
15296;DHT22;7749;49.964;7.890;2023-03-14T03:23:10;9.80;99.90
15296;DHT22;7749;49.964;7.890;2023-03-14T03:25:37;9.70;99.90
15296;DHT22;7749;49.964;7.890;2023-03-14T03:28:05;9.70;99.90
15296;DHT22;7749;49.964;7.890;2023-03-14T03:30:39;9.70;99.90
15296;DHT22;7749;49.964;7.890;2023-03-14T03:33:08;9.80;99.90
15296;DHT22;7749;49.964;7.890;2023-03-14T03:35:42;9.80;99.90
15296;DHT22;7749;49.964;7.890;2023-03-14T03:38:10;9.70;99.90
15296;DHT22;7749;49.964;7.890;2023-03-14T03:40:39;9.80;99.90
15296;DHT22;7749;49.964;7.890;2023-03-14T03:43:06;9.80;99.90
15296;DHT22;7749;49.964;7.890;2023-03-14T03:45:34;9.90;99.90
15296;DHT22;7749;49.964;7.890;2023-03-14T03:48:02;9.90;99.90
15296;DHT22;7749;49.964;7.890;2023-03-14T03:50:30;9.90;99.90
15296;DHT22;7749;49.964;7.890;2023-03-14T03:52:58;9.90;99.90
15296;DHT22;7749;49.964;7.890;2023-03-14T03:55:25;9.90;99.90
15296;DHT22;7749;49.964;7.890;2023-03-14T03:57:55;9.90;99.90
15296;DHT22;7749;49.964;7.890;2023-03-14T04:00:23;9.80;99.90
15296;DHT22;7749;49.964;7.890;2023-03-14T04:02:50;9.90;99.90
15296;DHT22;7749;49.964;7.890;2023-03-14T04:05:18;9.80;99.90
15296;DHT22;7749;49.964;7.890;2023-03-14T04:07:46;9.90;99.90
15296;DHT22;7749;49.964;7.890;2023-03-14T04:10:14;9.90;99.90
15296;DHT22;7749;49.964;7.890;2023-03-14T04:12:42;9.90;99.90
15296;DHT22;7749;49.964;7.890;2023-03-14T04:15:10;9.90;99.90
15296;DHT22;7749;49.964;7.890;2023-03-14T04:17:37;9.90;99.90
15296;DHT22;7749;49.964;7.890;2023-03-14T04:20:06;9.80;99.90
15296;DHT22;7749;49.964;7.890;2023-03-14T04:22:38;9.80;99.90
15296;DHT22;7749;49.964;7.890;2023-03-14T04:25:07;9.80;99.90
15296;DHT22;7749;49.964;7.890;2023-03-14T04:27:34;9.80;99.90
15296;DHT22;7749;49.964;7.890;2023-03-14T04:30:02;9.80;99.90
15296;DHT22;7749;49.964;7.890;2023-03-14T04:32:30;9.80;99.90
15296;DHT22;7749;49.964;7.890;2023-03-14T04:34:58;9.90;99.90
15296;DHT22;7749;49.964;7.890;2023-03-14T04:37:25;10.00;99.90
15296;DHT22;7749;49.964;7.890;2023-03-14T04:39:53;9.90;99.90
15296;DHT22;7749;49.964;7.890;2023-03-14T04:42:21;10.10;99.90
15296;DHT22;7749;49.964;7.890;2023-03-14T04:44:48;10.00;99.90
15296;DHT22;7749;49.964;7.890;2023-03-14T04:47:17;10.00;99.90
15296;DHT22;7749;49.964;7.890;2023-03-14T04:49:44;9.80;99.90
15296;DHT22;7749;49.964;7.890;2023-03-14T04:52:12;10.00;99.90
15296;DHT22;7749;49.964;7.890;2023-03-14T04:54:40;10.10;99.90
15296;DHT22;7749;49.964;7.890;2023-03-14T04:57:07;10.10;99.90
15296;DHT22;7749;49.964;7.890;2023-03-14T04:59:35;10.10;99.90
15296;DHT22;7749;49.964;7.890;2023-03-14T05:02:03;10.20;99.90
15296;DHT22;7749;49.964;7.890;2023-03-14T05:04:30;10.20;99.90
15296;DHT22;7749;49.964;7.890;2023-03-14T05:07:00;10.20;99.90
15296;DHT22;7749;49.964;7.890;2023-03-14T05:09:28;10.20;99.90
15296;DHT22;7749;49.964;7.890;2023-03-14T05:11:55;10.30;99.90
15296;DHT22;7749;49.964;7.890;2023-03-14T05:14:23;10.20;99.90
15296;DHT22;7749;49.964;7.890;2023-03-14T05:16:51;10.30;99.90
15296;DHT22;7749;49.964;7.890;2023-03-14T05:19:18;10.30;99.90
15296;DHT22;7749;49.964;7.890;2023-03-14T05:21:46;10.30;99.90
15296;DHT22;7749;49.964;7.890;2023-03-14T05:24:13;10.30;99.90
15296;DHT22;7749;49.964;7.890;2023-03-14T05:26:41;10.20;99.90
15296;DHT22;7749;49.964;7.890;2023-03-14T05:29:08;10.30;99.90
15296;DHT22;7749;49.964;7.890;2023-03-14T05:31:36;10.30;99.90
15296;DHT22;7749;49.964;7.890;2023-03-14T05:34:04;10.20;99.90
15296;DHT22;7749;49.964;7.890;2023-03-14T05:36:31;10.10;99.90
15296;DHT22;7749;49.964;7.890;2023-03-14T05:38:59;10.20;99.90
15296;DHT22;7749;49.964;7.890;2023-03-14T05:41:27;10.20;99.90
15296;DHT22;7749;49.964;7.890;2023-03-14T05:43:54;10.20;99.90
15296;DHT22;7749;49.964;7.890;2023-03-14T05:46:22;10.30;99.90
15296;DHT22;7749;49.964;7.890;2023-03-14T05:48:50;10.20;99.90
15296;DHT22;7749;49.964;7.890;2023-03-14T05:51:18;10.10;99.90
15296;DHT22;7749;49.964;7.890;2023-03-14T05:53:45;10.20;99.90
15296;DHT22;7749;49.964;7.890;2023-03-14T05:56:13;10.10;99.90
15296;DHT22;7749;49.964;7.890;2023-03-14T05:58:40;10.10;99.90
15296;DHT22;7749;49.964;7.890;2023-03-14T06:01:08;10.10;99.90
15296;DHT22;7749;49.964;7.890;2023-03-14T06:03:36;10.20;99.90
15296;DHT22;7749;49.964;7.890;2023-03-14T06:06:04;10.20;99.90
15296;DHT22;7749;49.964;7.890;2023-03-14T06:08:32;10.30;99.90
15296;DHT22;7749;49.964;7.890;2023-03-14T06:10:59;10.20;99.90
15296;DHT22;7749;49.964;7.890;2023-03-14T06:13:29;10.30;99.90
15296;DHT22;7749;49.964;7.890;2023-03-14T06:15:57;10.30;99.90
15296;DHT22;7749;49.964;7.890;2023-03-14T06:18:25;10.30;99.90
15296;DHT22;7749;49.964;7.890;2023-03-14T06:20:56;10.30;99.90
15296;DHT22;7749;49.964;7.890;2023-03-14T06:23:24;10.40;99.90
15296;DHT22;7749;49.964;7.890;2023-03-14T06:25:52;10.40;99.90
15296;DHT22;7749;49.964;7.890;2023-03-14T06:28:20;10.50;99.90
15296;DHT22;7749;49.964;7.890;2023-03-14T06:30:47;10.60;99.90
15296;DHT22;7749;49.964;7.890;2023-03-14T06:33:15;10.60;99.90
15296;DHT22;7749;49.964;7.890;2023-03-14T06:35:42;10.60;99.90
15296;DHT22;7749;49.964;7.890;2023-03-14T06:38:10;10.60;99.90
15296;DHT22;7749;49.964;7.890;2023-03-14T06:40:38;10.60;99.90
15296;DHT22;7749;49.964;7.890;2023-03-14T06:43:05;10.70;99.90
15296;DHT22;7749;49.964;7.890;2023-03-14T06:45:33;10.70;99.90
15296;DHT22;7749;49.964;7.890;2023-03-14T06:48:01;10.70;99.90
15296;DHT22;7749;49.964;7.890;2023-03-14T06:50:28;10.80;99.90
15296;DHT22;7749;49.964;7.890;2023-03-14T06:52:56;10.80;99.90
15296;DHT22;7749;49.964;7.890;2023-03-14T06:55:24;10.70;99.90
15296;DHT22;7749;49.964;7.890;2023-03-14T06:57:51;10.80;99.90
15296;DHT22;7749;49.964;7.890;2023-03-14T07:00:19;10.80;99.90
15296;DHT22;7749;49.964;7.890;2023-03-14T07:02:47;10.90;99.90
15296;DHT22;7749;49.964;7.890;2023-03-14T07:05:15;10.90;99.90
15296;DHT22;7749;49.964;7.890;2023-03-14T07:07:42;10.90;99.90
15296;DHT22;7749;49.964;7.890;2023-03-14T07:10:10;10.90;99.90
15296;DHT22;7749;49.964;7.890;2023-03-14T07:12:38;10.90;99.90
15296;DHT22;7749;49.964;7.890;2023-03-14T07:15:06;10.90;99.90
15296;DHT22;7749;49.964;7.890;2023-03-14T07:17:46;11.00;99.90
15296;DHT22;7749;49.964;7.890;2023-03-14T07:20:16;11.10;99.90
15296;DHT22;7749;49.964;7.890;2023-03-14T07:22:44;11.10;99.90
15296;DHT22;7749;49.964;7.890;2023-03-14T07:25:14;11.00;99.90
15296;DHT22;7749;49.964;7.890;2023-03-14T07:27:45;11.10;99.90
15296;DHT22;7749;49.964;7.890;2023-03-14T07:30:14;11.10;99.90
15296;DHT22;7749;49.964;7.890;2023-03-14T07:32:42;11.20;99.90
15296;DHT22;7749;49.964;7.890;2023-03-14T07:35:09;11.40;99.90
15296;DHT22;7749;49.964;7.890;2023-03-14T07:37:37;11.60;99.90
15296;DHT22;7749;49.964;7.890;2023-03-14T07:40:05;11.80;99.90
15296;DHT22;7749;49.964;7.890;2023-03-14T07:42:34;11.90;99.90
15296;DHT22;7749;49.964;7.890;2023-03-14T07:45:02;12.00;99.90
15296;DHT22;7749;49.964;7.890;2023-03-14T07:47:30;12.00;99.90
15296;DHT22;7749;49.964;7.890;2023-03-14T07:49:58;12.10;99.90
15296;DHT22;7749;49.964;7.890;2023-03-14T07:52:25;12.20;99.90
15296;DHT22;7749;49.964;7.890;2023-03-14T07:54:53;12.10;99.90
15296;DHT22;7749;49.964;7.890;2023-03-14T07:57:21;12.10;99.90
15296;DHT22;7749;49.964;7.890;2023-03-14T07:59:49;12.10;99.90
15296;DHT22;7749;49.964;7.890;2023-03-14T08:02:17;12.10;99.90
15296;DHT22;7749;49.964;7.890;2023-03-14T08:04:48;12.00;99.90
15296;DHT22;7749;49.964;7.890;2023-03-14T08:07:16;12.20;99.90
15296;DHT22;7749;49.964;7.890;2023-03-14T08:09:44;12.50;99.90
15296;DHT22;7749;49.964;7.890;2023-03-14T08:12:12;12.60;99.90
15296;DHT22;7749;49.964;7.890;2023-03-14T08:14:40;12.50;99.90
15296;DHT22;7749;49.964;7.890;2023-03-14T08:17:07;12.70;99.90
15296;DHT22;7749;49.964;7.890;2023-03-14T08:19:36;12.60;99.90
15296;DHT22;7749;49.964;7.890;2023-03-14T08:22:04;12.70;99.90
15296;DHT22;7749;49.964;7.890;2023-03-14T08:24:32;12.70;99.90
15296;DHT22;7749;49.964;7.890;2023-03-14T08:27:00;12.80;99.90
15296;DHT22;7749;49.964;7.890;2023-03-14T08:29:27;12.90;96.60
15296;DHT22;7749;49.964;7.890;2023-03-14T08:31:55;12.70;99.90
15296;DHT22;7749;49.964;7.890;2023-03-14T08:34:22;12.80;99.90
15296;DHT22;7749;49.964;7.890;2023-03-14T08:36:50;12.60;99.90
15296;DHT22;7749;49.964;7.890;2023-03-14T08:39:18;12.40;99.90
15296;DHT22;7749;49.964;7.890;2023-03-14T08:41:45;12.30;99.90
15296;DHT22;7749;49.964;7.890;2023-03-14T08:44:13;12.40;99.90
15296;DHT22;7749;49.964;7.890;2023-03-14T08:46:43;12.40;99.90
15296;DHT22;7749;49.964;7.890;2023-03-14T08:49:11;12.50;99.90
15296;DHT22;7749;49.964;7.890;2023-03-14T08:51:39;12.40;99.90
15296;DHT22;7749;49.964;7.890;2023-03-14T08:54:10;12.40;99.90
15296;DHT22;7749;49.964;7.890;2023-03-14T08:56:38;12.60;99.90
15296;DHT22;7749;49.964;7.890;2023-03-14T08:59:06;12.90;99.90
15296;DHT22;7749;49.964;7.890;2023-03-14T09:01:33;12.70;83.90
15296;DHT22;7749;49.964;7.890;2023-03-14T09:04:01;12.70;99.90
15296;DHT22;7749;49.964;7.890;2023-03-14T09:06:29;12.90;99.90
15296;DHT22;7749;49.964;7.890;2023-03-14T09:08:56;13.00;86.00
15296;DHT22;7749;49.964;7.890;2023-03-14T09:11:24;13.20;89.50
15296;DHT22;7749;49.964;7.890;2023-03-14T09:13:52;13.30;60.90
15296;DHT22;7749;49.964;7.890;2023-03-14T09:16:19;13.30;71.10
15296;DHT22;7749;49.964;7.890;2023-03-14T09:18:47;13.10;69.90
15296;DHT22;7749;49.964;7.890;2023-03-14T09:21:14;13.10;86.10
15296;DHT22;7749;49.964;7.890;2023-03-14T09:23:42;13.10;65.90
15296;DHT22;7749;49.964;7.890;2023-03-14T09:26:13;13.20;70.50
15296;DHT22;7749;49.964;7.890;2023-03-14T09:28:40;13.10;62.80
15296;DHT22;7749;49.964;7.890;2023-03-14T09:31:10;13.20;65.80
15296;DHT22;7749;49.964;7.890;2023-03-14T09:33:38;13.30;61.10
15296;DHT22;7749;49.964;7.890;2023-03-14T09:36:06;13.10;73.50
15296;DHT22;7749;49.964;7.890;2023-03-14T09:38:35;13.10;82.20
15296;DHT22;7749;49.964;7.890;2023-03-14T09:41:14;13.00;79.30
15296;DHT22;7749;49.964;7.890;2023-03-14T09:43:43;13.10;83.60
15296;DHT22;7749;49.964;7.890;2023-03-14T09:46:13;13.00;67.50
15296;DHT22;7749;49.964;7.890;2023-03-14T09:48:41;13.30;50.20
15296;DHT22;7749;49.964;7.890;2023-03-14T09:51:16;13.20;51.90
15296;DHT22;7749;49.964;7.890;2023-03-14T09:53:47;13.50;47.60
15296;DHT22;7749;49.964;7.890;2023-03-14T09:56:23;13.70;8.00
15296;DHT22;7749;49.964;7.890;2023-03-14T09:58:55;13.70;11.00
15296;DHT22;7749;49.964;7.890;2023-03-14T10:01:29;13.40;27.80
15296;DHT22;7749;49.964;7.890;2023-03-14T10:04:10;13.40;27.70
15296;DHT22;7749;49.964;7.890;2023-03-14T10:06:41;13.30;28.50
15296;DHT22;7749;49.964;7.890;2023-03-14T10:09:20;13.20;53.60
15296;DHT22;7749;49.964;7.890;2023-03-14T10:11:55;13.00;92.40
15296;DHT22;7749;49.964;7.890;2023-03-14T10:14:36;13.20;99.90
15296;DHT22;7749;49.964;7.890;2023-03-14T10:17:09;13.30;49.70
15296;DHT22;7749;49.964;7.890;2023-03-14T10:22:23;13.30;57.90
15296;DHT22;7749;49.964;7.890;2023-03-14T10:24:56;13.20;68.60
15296;DHT22;7749;49.964;7.890;2023-03-14T10:27:32;13.30;45.50
15296;DHT22;7749;49.964;7.890;2023-03-14T10:30:05;13.40;61.80
15296;DHT22;7749;49.964;7.890;2023-03-14T10:32:38;13.50;53.10
15296;DHT22;7749;49.964;7.890;2023-03-14T10:35:20;13.60;35.30
15296;DHT22;7749;49.964;7.890;2023-03-14T10:37:59;13.60;17.70
15296;DHT22;7749;49.964;7.890;2023-03-14T10:40:30;13.40;23.00
15296;DHT22;7749;49.964;7.890;2023-03-14T10:43:00;13.60;15.50
15296;DHT22;7749;49.964;7.890;2023-03-14T10:45:32;13.80;33.90
15296;DHT22;7749;49.964;7.890;2023-03-14T10:48:22;13.90;1.40
15296;DHT22;7749;49.964;7.890;2023-03-14T10:53:25;13.90;1.00
15296;DHT22;7749;49.964;7.890;2023-03-14T10:55:55;14.00;1.00
15296;DHT22;7749;49.964;7.890;2023-03-14T10:58:35;14.10;1.00
15296;DHT22;7749;49.964;7.890;2023-03-14T11:03:43;13.80;12.50
15296;DHT22;7749;49.964;7.890;2023-03-14T11:06:20;13.90;12.70
15296;DHT22;7749;49.964;7.890;2023-03-14T11:09:20;13.90;10.40
15296;DHT22;7749;49.964;7.890;2023-03-14T11:11:48;13.90;22.50
15296;DHT22;7749;49.964;7.890;2023-03-14T11:14:38;13.80;53.10
15296;DHT22;7749;49.964;7.890;2023-03-14T11:22:50;12.40;99.90
15296;DHT22;7749;49.964;7.890;2023-03-14T11:28:10;12.20;99.90
15296;DHT22;7749;49.964;7.890;2023-03-14T11:30:53;11.70;70.70
15296;DHT22;7749;49.964;7.890;2023-03-14T11:36:29;11.80;58.10
15296;DHT22;7749;49.964;7.890;2023-03-14T11:38:59;12.20;83.80
15296;DHT22;7749;49.964;7.890;2023-03-14T11:41:32;12.70;4.20
15296;DHT22;7749;49.964;7.890;2023-03-14T11:44:04;12.80;1.00
15296;DHT22;7749;49.964;7.890;2023-03-14T11:46:39;12.60;1.00
15296;DHT22;7749;49.964;7.890;2023-03-14T11:52:05;13.90;1.00
15296;DHT22;7749;49.964;7.890;2023-03-14T11:57:27;14.00;1.00
15296;DHT22;7749;49.964;7.890;2023-03-14T12:10:40;14.00;1.00
15296;DHT22;7749;49.964;7.890;2023-03-14T12:13:12;14.60;1.00
15296;DHT22;7749;49.964;7.890;2023-03-14T12:15:46;13.80;1.00
15296;DHT22;7749;49.964;7.890;2023-03-14T12:18:26;14.30;1.00
15296;DHT22;7749;49.964;7.890;2023-03-14T12:20:58;14.90;1.00
15296;DHT22;7749;49.964;7.890;2023-03-14T12:23:28;15.00;1.00
15296;DHT22;7749;49.964;7.890;2023-03-14T12:45:21;11.60;1.00
15296;DHT22;7749;49.964;7.890;2023-03-14T12:48:14;11.00;75.60
15296;DHT22;7749;49.964;7.890;2023-03-14T12:50:54;10.30;92.40
15296;DHT22;7749;49.964;7.890;2023-03-14T12:53:37;9.80;99.90
15296;DHT22;7749;49.964;7.890;2023-03-14T12:56:11;9.90;99.90
15296;DHT22;7749;49.964;7.890;2023-03-14T13:01:56;10.50;99.90
15296;DHT22;7749;49.964;7.890;2023-03-14T13:04:35;10.30;99.90
15296;DHT22;7749;49.964;7.890;2023-03-14T13:13:22;10.30;26.50
15296;DHT22;7749;49.964;7.890;2023-03-14T13:15:58;10.80;38.40
15296;DHT22;7749;49.964;7.890;2023-03-14T13:18:41;10.90;20.40
15296;DHT22;7749;49.964;7.890;2023-03-14T13:24:06;10.30;47.00
15296;DHT22;7749;49.964;7.890;2023-03-14T13:26:42;10.30;53.20
15296;DHT22;7749;49.964;7.890;2023-03-14T13:29:20;10.60;29.00
15296;DHT22;7749;49.964;7.890;2023-03-14T13:31:51;11.40;1.00
15296;DHT22;7749;49.964;7.890;2023-03-14T13:34:19;12.00;1.00
15296;DHT22;7749;49.964;7.890;2023-03-14T13:36:47;13.50;1.00
15296;DHT22;7749;49.964;7.890;2023-03-14T13:39:21;14.10;1.00
15296;DHT22;7749;49.964;7.890;2023-03-14T13:42:00;13.50;99.90
15296;DHT22;7749;49.964;7.890;2023-03-14T13:44:34;14.20;1.00
15296;DHT22;7749;49.964;7.890;2023-03-14T13:47:04;14.10;1.00
15296;DHT22;7749;49.964;7.890;2023-03-14T13:49:33;13.60;1.00
15296;DHT22;7749;49.964;7.890;2023-03-14T13:52:04;13.50;1.00
15296;DHT22;7749;49.964;7.890;2023-03-14T13:54:48;14.60;99.90
15296;DHT22;7749;49.964;7.890;2023-03-14T13:57:19;13.80;1.00
15296;DHT22;7749;49.964;7.890;2023-03-14T14:02:48;14.30;99.90
15296;DHT22;7749;49.964;7.890;2023-03-14T14:05:15;13.50;1.00
15296;DHT22;7749;49.964;7.890;2023-03-14T14:07:44;13.80;1.00
15296;DHT22;7749;49.964;7.890;2023-03-14T14:10:13;13.70;1.00
15296;DHT22;7749;49.964;7.890;2023-03-14T14:15:44;12.90;99.90
15296;DHT22;7749;49.964;7.890;2023-03-14T14:18:17;14.30;1.00
15296;DHT22;7749;49.964;7.890;2023-03-14T14:20:46;17.10;1.00
15296;DHT22;7749;49.964;7.890;2023-03-14T14:23:22;18.10;99.90
15296;DHT22;7749;49.964;7.890;2023-03-14T14:25:56;17.80;31.80
15296;DHT22;7749;49.964;7.890;2023-03-14T14:28:31;15.10;1.00
15296;DHT22;7749;49.964;7.890;2023-03-14T14:31:20;14.50;8.80
15296;DHT22;7749;49.964;7.890;2023-03-14T14:34:00;13.20;1.00
15296;DHT22;7749;49.964;7.890;2023-03-14T14:36:42;13.00;99.90
15296;DHT22;7749;49.964;7.890;2023-03-14T14:39:19;13.00;1.00
15296;DHT22;7749;49.964;7.890;2023-03-14T14:41:49;12.30;1.00
15296;DHT22;7749;49.964;7.890;2023-03-14T14:44:22;12.20;99.90
15296;DHT22;7749;49.964;7.890;2023-03-14T14:46:54;12.00;1.00
15296;DHT22;7749;49.964;7.890;2023-03-14T14:52:36;11.00;93.40
15296;DHT22;7749;49.964;7.890;2023-03-14T14:55:13;10.80;1.00
15296;DHT22;7749;49.964;7.890;2023-03-14T14:57:52;10.60;99.90
15296;DHT22;7749;49.964;7.890;2023-03-14T15:00:24;10.70;76.80
15296;DHT22;7749;49.964;7.890;2023-03-14T15:02:55;11.00;1.00
15296;DHT22;7749;49.964;7.890;2023-03-14T15:08:09;11.00;99.90
15296;DHT22;7749;49.964;7.890;2023-03-14T15:10:37;10.70;1.00
15296;DHT22;7749;49.964;7.890;2023-03-14T15:13:05;10.70;1.00
15296;DHT22;7749;49.964;7.890;2023-03-14T15:15:32;10.70;99.90
15296;DHT22;7749;49.964;7.890;2023-03-14T15:18:02;10.50;99.90
15296;DHT22;7749;49.964;7.890;2023-03-14T15:20:29;10.70;1.00
15296;DHT22;7749;49.964;7.890;2023-03-14T15:22:57;10.70;99.90
15296;DHT22;7749;49.964;7.890;2023-03-14T15:25:25;10.60;99.90
15296;DHT22;7749;49.964;7.890;2023-03-14T15:28:18;10.50;99.90
15296;DHT22;7749;49.964;7.890;2023-03-14T15:30:55;11.20;1.00
15296;DHT22;7749;49.964;7.890;2023-03-14T15:33:24;11.20;99.90
15296;DHT22;7749;49.964;7.890;2023-03-14T15:35:52;11.00;99.90
15296;DHT22;7749;49.964;7.890;2023-03-14T15:38:21;11.70;99.90
15296;DHT22;7749;49.964;7.890;2023-03-14T15:40:50;12.60;1.00
15296;DHT22;7749;49.964;7.890;2023-03-14T15:43:19;12.40;1.00
15296;DHT22;7749;49.964;7.890;2023-03-14T15:45:47;11.60;99.90
15296;DHT22;7749;49.964;7.890;2023-03-14T15:48:17;11.50;1.00
15296;DHT22;7749;49.964;7.890;2023-03-14T15:50:45;11.30;99.90
15296;DHT22;7749;49.964;7.890;2023-03-14T15:53:13;11.00;99.90
15296;DHT22;7749;49.964;7.890;2023-03-14T15:55:41;10.60;1.00
15296;DHT22;7749;49.964;7.890;2023-03-14T15:58:16;10.40;96.80
15296;DHT22;7749;49.964;7.890;2023-03-14T16:00:48;10.30;99.90
15296;DHT22;7749;49.964;7.890;2023-03-14T16:03:16;10.00;99.90
15296;DHT22;7749;49.964;7.890;2023-03-14T16:05:44;9.80;1.00
15296;DHT22;7749;49.964;7.890;2023-03-14T16:08:11;9.80;1.00
15296;DHT22;7749;49.964;7.890;2023-03-14T16:10:39;9.80;1.00
15296;DHT22;7749;49.964;7.890;2023-03-14T16:13:07;9.70;99.90
15296;DHT22;7749;49.964;7.890;2023-03-14T16:15:35;9.50;99.90
15296;DHT22;7749;49.964;7.890;2023-03-14T16:18:02;9.30;1.00
15296;DHT22;7749;49.964;7.890;2023-03-14T16:20:54;9.50;1.00
15296;DHT22;7749;49.964;7.890;2023-03-14T16:23:22;9.60;84.70
15296;DHT22;7749;49.964;7.890;2023-03-14T16:25:51;9.60;1.00
15296;DHT22;7749;49.964;7.890;2023-03-14T16:28:19;9.90;99.90
15296;DHT22;7749;49.964;7.890;2023-03-14T16:30:46;9.60;1.00
15296;DHT22;7749;49.964;7.890;2023-03-14T16:33:15;9.60;1.00
15296;DHT22;7749;49.964;7.890;2023-03-14T16:35:57;9.40;1.00
15296;DHT22;7749;49.964;7.890;2023-03-14T16:38:27;9.60;99.90
15296;DHT22;7749;49.964;7.890;2023-03-14T16:41:01;9.30;1.00
15296;DHT22;7749;49.964;7.890;2023-03-14T16:43:29;9.10;99.90
15296;DHT22;7749;49.964;7.890;2023-03-14T16:45:57;8.80;99.90
15296;DHT22;7749;49.964;7.890;2023-03-14T16:48:27;8.70;1.00
15296;DHT22;7749;49.964;7.890;2023-03-14T16:50:55;8.60;1.00
15296;DHT22;7749;49.964;7.890;2023-03-14T16:53:23;8.50;1.00
15296;DHT22;7749;49.964;7.890;2023-03-14T16:55:51;8.40;99.90
15296;DHT22;7749;49.964;7.890;2023-03-14T16:58:19;8.30;99.90
15296;DHT22;7749;49.964;7.890;2023-03-14T17:00:48;8.30;99.90
15296;DHT22;7749;49.964;7.890;2023-03-14T17:03:16;8.10;1.00
15296;DHT22;7749;49.964;7.890;2023-03-14T17:05:45;8.10;1.00
15296;DHT22;7749;49.964;7.890;2023-03-14T17:08:18;8.10;1.00
15296;DHT22;7749;49.964;7.890;2023-03-14T17:10:46;7.70;1.00
15296;DHT22;7749;49.964;7.890;2023-03-14T17:13:14;7.70;1.00
15296;DHT22;7749;49.964;7.890;2023-03-14T17:15:45;7.70;1.00
15296;DHT22;7749;49.964;7.890;2023-03-14T17:18:13;7.70;99.90
15296;DHT22;7749;49.964;7.890;2023-03-14T17:20:41;7.70;99.90
15296;DHT22;7749;49.964;7.890;2023-03-14T17:23:08;7.70;99.90
15296;DHT22;7749;49.964;7.890;2023-03-14T17:25:36;7.90;99.90
15296;DHT22;7749;49.964;7.890;2023-03-14T17:28:05;7.50;99.90
15296;DHT22;7749;49.964;7.890;2023-03-14T17:30:33;7.20;99.90
15296;DHT22;7749;49.964;7.890;2023-03-14T17:33:01;6.70;99.90
15296;DHT22;7749;49.964;7.890;2023-03-14T17:35:28;6.30;99.90
15296;DHT22;7749;49.964;7.890;2023-03-14T17:37:56;6.20;99.90
15296;DHT22;7749;49.964;7.890;2023-03-14T17:40:24;6.00;99.90
15296;DHT22;7749;49.964;7.890;2023-03-14T17:42:52;6.00;99.90
15296;DHT22;7749;49.964;7.890;2023-03-14T17:45:19;5.90;99.90
15296;DHT22;7749;49.964;7.890;2023-03-14T17:47:47;5.60;99.90